Time;durP1;ratioP1;P1;durP2;ratioP2;P2;SDS_P1;SDS_P2;PMS_P1;PMS_P2;Temp;Humidity;BMP_temperature;BMP_pressure;BME280_temperature;BME280_humidity;BME280_pressure;Samples;Min_cycle;Max_cycle;Signal;HPM_P1;HPM_P2
2020/12/03 00:00:39;;;;;;;110.82;34.92;;;-0.40;99.90;;;;;;4874895;28;20145;-81
2020/12/03 00:03:10;;;;;;;116.43;35.03;;;-0.40;99.90;;;;;;4882950;28;20180;-82
2020/12/03 00:05:33;;;;;;;116.53;34.65;;;-0.50;99.90;;;;;;4883287;28;20157;-81
2020/12/03 00:07:58;;;;;;;123.88;35.35;;;-0.50;99.90;;;;;;4877190;28;20280;-83
2020/12/03 00:10:22;;;;;;;118.50;34.72;;;-0.50;99.90;;;;;;4881261;28;20581;-81
2020/12/03 00:13:05;;;;;;;115.82;34.55;;;-0.50;99.90;;;;;;4882590;28;20225;-82
2020/12/03 00:15:28;;;;;;;122.15;34.15;;;-0.50;99.90;;;;;;4879996;28;20109;-83
2020/12/03 00:17:52;;;;;;;116.57;34.25;;;-0.50;99.90;;;;;;4881583;28;20094;-82
2020/12/03 00:20:19;;;;;;;120.50;35.85;;;-0.60;99.90;;;;;;4880605;28;20468;-83
2020/12/03 00:22:43;;;;;;;106.63;33.85;;;-0.60;99.90;;;;;;4882010;28;20094;-82
2020/12/03 00:25:06;;;;;;;117.53;33.90;;;;;;;;;;4852465;28;20096;-81
2020/12/03 00:27:29;;;;;;;129.80;35.85;;;-0.70;99.90;;;;;;4864189;28;20137;-83
2020/12/03 00:29:52;;;;;;;118.18;33.33;;;-0.70;99.90;;;;;;4882023;28;20166;-84
2020/12/03 00:32:19;;;;;;;114.50;33.25;;;-0.80;99.90;;;;;;4863634;28;20149;-82
2020/12/03 00:34:43;;;;;;;106.07;34.70;;;-0.70;99.90;;;;;;4879788;28;20098;-82
2020/12/03 00:37:09;;;;;;;121.93;35.42;;;-0.80;99.90;;;;;;4884104;28;20785;-82
2020/12/03 00:39:33;;;;;;;117.15;34.40;;;-0.80;99.90;;;;;;4887187;28;20110;-82
2020/12/03 00:41:56;;;;;;;126.00;35.13;;;;;;;;;;4882482;28;20100;-82
2020/12/03 00:44:20;;;;;;;124.05;35.53;;;-0.90;99.90;;;;;;4877959;28;20111;-82
2020/12/03 00:46:43;;;;;;;121.15;33.50;;;-0.80;99.90;;;;;;4881579;28;20104;-82
2020/12/03 00:49:06;;;;;;;124.70;35.30;;;;;;;;;;4884672;28;20101;-81
2020/12/03 00:51:30;;;;;;;130.93;36.70;;;-0.90;99.90;;;;;;4878045;28;20092;-81
2020/12/03 00:53:58;;;;;;;128.60;35.30;;;-0.90;99.90;;;;;;4881555;28;20090;-84
2020/12/03 00:56:21;;;;;;;120.28;34.00;;;-0.90;99.90;;;;;;4877529;28;20096;-81
2020/12/03 00:58:45;;;;;;;121.90;36.88;;;-1.00;99.90;;;;;;4881560;28;20226;-82
2020/12/03 01:01:08;;;;;;;116.82;35.05;;;-1.00;99.90;;;;;;4889428;28;20098;-82
2020/12/03 01:03:32;;;;;;;126.07;37.58;;;-1.10;99.90;;;;;;4851942;28;20117;-81
2020/12/03 01:05:54;;;;;;;122.18;36.10;;;-1.10;99.90;;;;;;4894050;28;20100;-82
2020/12/03 01:08:19;;;;;;;116.20;36.15;;;-1.00;99.90;;;;;;4878263;28;20732;-82
2020/12/03 01:10:43;;;;;;;143.15;37.55;;;-1.10;99.90;;;;;;4899542;28;20157;-83
2020/12/03 01:13:07;;;;;;;123.55;35.08;;;-1.10;99.90;;;;;;4889139;28;20212;-81
2020/12/03 01:15:30;;;;;;;131.23;36.72;;;-1.10;99.90;;;;;;4878585;28;20105;-83
2020/12/03 01:17:54;;;;;;;118.85;37.63;;;-1.10;99.90;;;;;;4882418;28;20108;-83
2020/12/03 01:20:21;;;;;;;131.57;38.83;;;-1.20;99.90;;;;;;4883804;28;23712;-82
2020/12/03 01:22:44;;;;;;;133.52;35.25;;;-1.20;99.90;;;;;;4884537;28;20090;-82
2020/12/03 01:25:09;;;;;;;125.68;37.05;;;-1.20;99.90;;;;;;4885966;28;20434;-82
2020/12/03 01:27:32;;;;;;;129.60;36.38;;;-1.20;99.90;;;;;;4869148;28;20188;-81
2020/12/03 01:29:56;;;;;;;121.47;33.88;;;-1.10;99.90;;;;;;4893158;28;20088;-82
2020/12/03 01:32:23;;;;;;;144.32;36.72;;;-1.10;99.90;;;;;;4887605;28;20096;-82
2020/12/03 01:34:46;;;;;;;124.90;38.90;;;-1.10;99.90;;;;;;4885350;28;20099;-82
2020/12/03 01:37:08;;;;;;;128.30;36.47;;;-1.10;99.90;;;;;;4882599;28;20517;-82
2020/12/03 01:39:32;;;;;;;138.43;36.95;;;-1.10;99.90;;;;;;4881888;28;20151;-80
2020/12/03 01:41:56;;;;;;;125.22;35.47;;;-1.10;99.90;;;;;;4879791;28;20134;-82
2020/12/03 01:44:35;;;;;;;144.13;38.75;;;-1.20;99.90;;;;;;4914805;28;20527;-82
2020/12/03 01:46:58;;;;;;;142.52;37.13;;;-1.20;99.90;;;;;;4883226;28;20100;-82
2020/12/03 01:49:28;;;;;;;90.30;29.60;;;-1.20;99.90;;;;;;4885334;28;20153;-81
2020/12/03 01:51:55;;;;;;;118.63;35.25;;;-1.20;99.90;;;;;;4891668;28;20108;-81
2020/12/03 01:54:20;;;;;;;147.00;36.20;;;-1.20;99.90;;;;;;4867650;28;20096;-82
2020/12/03 01:56:55;;;;;;;110.35;31.40;;;-1.20;99.90;;;;;;4881048;28;20090;-82
2020/12/03 01:59:21;;;;;;;133.55;34.53;;;-1.10;99.90;;;;;;4885168;28;20107;-82
2020/12/03 02:01:46;;;;;;;120.82;31.63;;;-1.00;99.90;;;;;;4866342;28;20181;-81
2020/12/03 02:04:09;;;;;;;;;;;-1.00;99.90;;;;;;4853159;28;20100;-82
2020/12/03 02:06:34;;;;;;;116.78;32.80;;;-0.90;99.90;;;;;;4861681;28;20053;-83
2020/12/03 02:08:58;;;;;;;120.68;32.75;;;-0.90;99.90;;;;;;4880534;28;20093;-83
2020/12/03 02:11:23;;;;;;;116.35;31.23;;;-0.80;99.90;;;;;;4882764;28;20176;-83
2020/12/03 02:13:55;;;;;;;125.65;37.13;;;-0.80;99.90;;;;;;4851340;28;22047;-82
2020/12/03 02:16:19;;;;;;;141.30;37.50;;;-0.80;99.90;;;;;;4890975;28;20156;-83
2020/12/03 02:18:45;;;;;;;114.13;31.88;;;;;;;;;;4882600;28;20086;-82
2020/12/03 02:21:09;;;;;;;156.65;41.72;;;-0.80;99.90;;;;;;4871311;28;20950;-83
2020/12/03 02:23:32;;;;;;;135.77;37.70;;;-0.70;99.90;;;;;;4892138;28;20580;-82
2020/12/03 02:25:55;;;;;;;127.68;38.15;;;-0.70;99.90;;;;;;4853734;28;20098;-82
2020/12/03 02:28:18;;;;;;;129.18;34.25;;;;;;;;;;4862301;28;22977;-83
2020/12/03 02:30:42;;;;;;;142.05;35.13;;;-0.70;99.90;;;;;;4870781;28;20105;-82
2020/12/03 02:33:06;;;;;;;90.45;25.98;;;-0.70;99.90;;;;;;4884280;28;20086;-82
2020/12/03 02:35:29;;;;;;;109.65;34.10;;;-0.60;99.90;;;;;;4887675;28;20177;-83
2020/12/03 02:37:55;;;;;;;112.90;33.17;;;-0.60;99.90;;;;;;4870199;28;20418;-83
2020/12/03 02:40:18;;;;;;;125.25;32.17;;;-0.60;99.90;;;;;;4884033;28;20100;-83
2020/12/03 02:42:41;;;;;;;120.32;35.75;;;-0.70;99.90;;;;;;4857293;28;20101;-82
2020/12/03 02:45:06;;;;;;;102.63;30.73;;;-0.70;99.90;;;;;;4882751;28;20096;-83
2020/12/03 02:47:28;;;;;;;132.27;37.90;;;-0.70;99.90;;;;;;4880520;28;20178;-82
2020/12/03 02:49:52;;;;;;;102.43;27.90;;;-0.70;99.90;;;;;;4869900;28;20181;-83
2020/12/03 02:52:18;;;;;;;142.93;36.67;;;-0.70;99.90;;;;;;4858700;28;20088;-83
2020/12/03 02:54:43;;;;;;;92.88;26.80;;;-0.70;99.90;;;;;;4907198;28;20434;-83
2020/12/03 02:57:07;;;;;;;130.10;33.85;;;-0.70;99.90;;;;;;4882202;28;20087;-84
2020/12/03 02:59:31;;;;;;;121.30;35.60;;;-0.70;99.90;;;;;;4882306;28;20091;-83
2020/12/03 03:01:55;;;;;;;119.25;35.17;;;-0.70;99.90;;;;;;4856198;28;20102;-82
2020/12/03 03:04:19;;;;;;;125.78;32.92;;;-0.70;99.90;;;;;;4872078;28;20529;-83
2020/12/03 03:06:42;;;;;;;103.72;30.92;;;-0.70;99.90;;;;;;4871160;28;20104;-83
2020/12/03 03:09:06;;;;;;;114.45;32.22;;;-1.30;99.90;;;;;;4883793;28;20134;-83
2020/12/03 03:11:32;;;;;;;103.18;24.65;;;-0.70;99.90;;;;;;4885652;28;20436;-83
2020/12/03 03:13:56;;;;;;;108.03;31.50;;;-0.70;99.90;;;;;;4900437;28;20510;-82
2020/12/03 03:16:19;;;;;;;93.90;27.52;;;-0.70;99.90;;;;;;4881425;28;20097;-82
2020/12/03 03:18:42;;;;;;;110.28;32.45;;;-0.70;99.90;;;;;;4847267;28;20187;-83
2020/12/03 03:21:05;;;;;;;107.50;30.55;;;-0.80;99.90;;;;;;4881255;28;20176;-83
2020/12/03 03:23:29;;;;;;;103.82;29.80;;;-0.80;99.90;;;;;;4882192;28;20103;-83
2020/12/03 03:25:52;;;;;;;109.50;30.85;;;-0.80;99.90;;;;;;4854529;28;20441;-83
2020/12/03 03:28:16;;;;;;;105.63;28.40;;;;;;;;;;4901914;28;20691;-83
2020/12/03 03:30:41;;;;;;;100.95;29.65;;;-0.80;99.90;;;;;;4885001;28;20090;-83
2020/12/03 03:33:06;;;;;;;114.15;29.85;;;-0.90;99.90;;;;;;4869127;28;20130;-84
2020/12/03 03:35:29;;;;;;;;;;;-0.90;99.90;;;;;;4880635;28;20168;-83
2020/12/03 03:37:52;;;;;;;94.85;25.52;;;-0.90;99.90;;;;;;4878970;28;19980;-83
2020/12/03 03:40:16;;;;;;;86.78;22.85;;;-0.90;99.90;;;;;;4881266;28;20591;-83
2020/12/03 03:42:40;;;;;;;94.93;26.83;;;-0.90;99.90;;;;;;4882924;28;20086;-83
2020/12/03 03:45:07;;;;;;;116.25;34.63;;;-0.90;99.90;;;;;;4859973;28;20092;-83
2020/12/03 03:47:29;;;;;;;100.35;28.35;;;-0.90;99.90;;;;;;4861495;28;22855;-82
2020/12/03 03:49:53;;;;;;;102.15;29.45;;;-0.80;99.90;;;;;;4878688;28;20145;-84
2020/12/03 03:52:16;;;;;;;89.20;25.42;;;-0.90;99.90;;;;;;4884404;28;20121;-84
2020/12/03 03:54:40;;;;;;;94.78;27.08;;;-0.90;99.90;;;;;;4891781;28;20450;-84
2020/12/03 03:57:04;;;;;;;111.25;30.25;;;-0.90;99.90;;;;;;4863264;28;20175;-82
2020/12/03 03:59:31;;;;;;;106.47;31.02;;;-0.90;99.90;;;;;;4870749;28;20089;-83
2020/12/03 04:01:55;;;;;;;99.93;29.95;;;;;;;;;;4872182;28;20106;-83
2020/12/03 04:04:19;;;;;;;111.15;28.98;;;-0.90;99.90;;;;;;4881668;28;21340;-83
2020/12/03 04:06:43;;;;;;;115.43;30.65;;;-0.80;99.90;;;;;;4888666;28;20163;-84
2020/12/03 04:09:06;;;;;;;117.97;31.02;;;-0.90;99.90;;;;;;4880247;28;20104;-82
2020/12/03 04:11:33;;;;;;;112.97;31.88;;;-0.90;99.90;;;;;;4857345;28;20090;-83
2020/12/03 04:13:57;;;;;;;114.30;32.38;;;-0.80;99.90;;;;;;4861767;28;20093;-83
2020/12/03 04:16:20;;;;;;;118.25;33.03;;;-0.80;99.90;;;;;;4876245;28;20496;-83
2020/12/03 04:18:44;;;;;;;100.40;28.45;;;-0.90;99.90;;;;;;4869081;28;20360;-83
2020/12/03 04:21:11;;;;;;;100.93;28.42;;;-0.80;99.90;;;;;;4880645;28;20111;-84
2020/12/03 04:23:35;;;;;;;131.75;32.28;;;-0.80;99.90;;;;;;4874773;28;20163;-83
2020/12/03 04:25:58;;;;;;;123.10;33.25;;;-0.90;99.90;;;;;;4880500;28;20182;-82
2020/12/03 04:28:21;;;;;;;108.47;31.70;;;-0.90;99.90;;;;;;4872592;28;20174;-83
2020/12/03 04:30:45;;;;;;;116.78;32.42;;;-0.80;99.90;;;;;;4881020;28;20094;-83
2020/12/03 04:33:09;;;;;;;108.65;30.92;;;-0.80;99.90;;;;;;4879176;28;20104;-83
2020/12/03 04:35:36;;;;;;;107.63;32.80;;;-0.90;99.90;;;;;;4883963;28;20121;-83
2020/12/03 04:37:59;;;;;;;114.63;31.98;;;-0.80;99.90;;;;;;4883889;28;20100;-83
2020/12/03 04:40:28;;;;;;;100.80;28.40;;;-0.90;99.90;;;;;;4877354;28;20086;-82
2020/12/03 04:42:52;;;;;;;106.60;29.52;;;-0.90;99.90;;;;;;4882981;28;20110;-82
2020/12/03 04:45:38;;;;;;;110.53;30.08;;;-0.90;99.90;;;;;;4881717;28;20436;-83
2020/12/03 04:48:20;;;;;;;116.90;30.52;;;-0.90;99.90;;;;;;4878460;28;20097;-83
2020/12/03 04:50:52;;;;;;;113.65;29.50;;;-0.90;99.90;;;;;;4849710;28;20093;-84
2020/12/03 04:53:35;;;;;;;111.43;30.83;;;-0.90;99.90;;;;;;4870203;28;20118;-81
2020/12/03 04:56:03;;;;;;;107.18;30.17;;;-0.90;99.90;;;;;;4879255;28;20119;-83
2020/12/03 04:58:43;;;;;;;110.68;30.83;;;-0.90;99.90;;;;;;4883080;28;20494;-83
2020/12/03 05:01:18;;;;;;;114.00;31.55;;;-0.90;99.90;;;;;;4899991;28;20459;-83
2020/12/03 05:04:01;;;;;;;76.93;22.42;;;-0.90;99.90;;;;;;4877399;28;20082;-83
2020/12/03 05:06:48;;;;;;;102.60;28.92;;;-1.00;99.90;;;;;;4876185;28;20100;-83
2020/12/03 05:09:19;;;;;;;100.13;28.65;;;-1.60;99.90;;;;;;4878531;28;20437;-83
2020/12/03 05:11:47;;;;;;;115.40;29.85;;;-0.90;99.90;;;;;;4878509;28;20094;-83
2020/12/03 05:14:21;;;;;;;110.00;28.77;;;0.40;99.90;;;;;;4863743;28;20160;-83
2020/12/03 05:16:52;;;;;;;94.95;26.92;;;-0.90;99.90;;;;;;4875804;28;20509;-83
2020/12/03 05:19:24;;;;;;;106.45;29.95;;;-0.90;99.90;;;;;;4884489;28;20102;-82
2020/12/03 05:21:49;;;;;;;115.97;31.42;;;-0.90;99.90;;;;;;4887163;28;20182;-83
2020/12/03 05:24:12;;;;;;;111.60;28.38;;;-0.90;99.90;;;;;;4876522;28;23013;-85
2020/12/03 05:26:36;;;;;;;110.35;29.02;;;-0.90;99.90;;;;;;4877948;28;21998;-83
2020/12/03 05:29:02;;;;;;;115.38;29.90;;;-0.90;99.90;;;;;;4870305;28;20087;-83
2020/12/03 05:31:30;;;;;;;109.82;28.20;;;-0.90;99.90;;;;;;4876009;28;20434;-83
2020/12/03 05:33:53;;;;;;;105.95;30.40;;;-0.90;99.90;;;;;;4882247;28;20440;-83
2020/12/03 05:36:26;;;;;;;113.90;31.67;;;-1.00;99.90;;;;;;4833200;28;20097;-83
2020/12/03 05:38:50;;;;;;;105.15;30.63;;;-0.90;99.90;;;;;;4868591;28;20191;-84
2020/12/03 05:41:16;;;;;;;116.75;30.70;;;-0.90;99.90;;;;;;4831167;28;20173;-84
2020/12/03 05:43:39;;;;;;;105.80;30.33;;;-0.90;99.90;;;;;;4876270;28;20093;-83
2020/12/03 05:46:05;;;;;;;118.95;31.85;;;-0.90;99.90;;;;;;4880802;28;20088;-83
2020/12/03 05:48:28;;;;;;;;;;;-0.90;99.90;;;;;;4873234;28;20101;-83
2020/12/03 05:50:52;;;;;;;119.20;28.95;;;-0.90;99.90;;;;;;4900870;28;20065;-83
2020/12/03 05:53:18;;;;;;;108.20;29.60;;;-0.90;99.90;;;;;;4872559;28;20106;-83
2020/12/03 05:55:42;;;;;;;109.05;27.38;;;-1.00;99.90;;;;;;4881475;28;20092;-83
2020/12/03 05:58:24;;;;;;;113.50;29.35;;;-1.00;99.90;;;;;;4874305;28;20098;-83
2020/12/03 06:00:48;;;;;;;122.95;32.53;;;-1.00;99.90;;;;;;4903154;28;20099;-83
2020/12/03 06:03:43;;;;;;;109.22;28.40;;;-1.00;99.90;;;;;;4872870;28;20116;-82
2020/12/03 06:06:40;;;;;;;121.40;31.00;;;-1.00;99.90;;;;;;4853588;28;20095;-82
2020/12/03 06:09:15;;;;;;;110.57;28.88;;;-1.00;99.90;;;;;;4872489;28;20458;-82
2020/12/03 06:11:48;;;;;;;118.18;28.20;;;-1.00;99.90;;;;;;4870758;28;20205;-82
2020/12/03 06:14:40;;;;;;;98.80;26.65;;;-1.00;99.90;;;;;;4866885;28;20088;-83
2020/12/03 06:17:18;;;;;;;98.72;27.58;;;-1.00;99.90;;;;;;4883197;28;21708;-82
2020/12/03 06:19:53;;;;;;;108.55;28.88;;;-1.00;99.90;;;;;;4898803;28;20514;-82
2020/12/03 06:22:19;;;;;;;;;;;-1.00;99.90;;;;;;4885072;28;20578;-82
2020/12/03 06:25:27;;;;;;;87.80;25.60;;;-1.10;99.90;;;;;;4904029;28;19979;-82
2020/12/03 06:28:21;;;;;;;114.97;28.48;;;-1.10;99.90;;;;;;4881556;28;20092;-83
2020/12/03 06:30:48;;;;;;;84.72;26.52;;;-1.10;99.90;;;;;;4840930;28;20561;-83
2020/12/03 06:33:38;;;;;;;109.45;29.33;;;-1.00;99.90;;;;;;4905575;28;20095;-83
2020/12/03 06:36:10;;;;;;;106.85;28.67;;;-1.10;99.90;;;;;;4871143;28;20544;-83
2020/12/03 06:38:39;;;;;;;96.78;26.88;;;-1.10;99.90;;;;;;4881448;28;20121;-83
2020/12/03 06:41:30;;;;;;;88.32;25.98;;;-1.10;99.90;;;;;;4873629;28;20089;-83
2020/12/03 06:44:01;;;;;;;91.85;24.85;;;-1.10;99.90;;;;;;4862194;28;20515;-83
2020/12/03 06:46:52;;;;;;;86.88;23.38;;;-1.10;99.90;;;;;;4860203;28;20119;-83
2020/12/03 06:49:58;;;;;;;127.07;31.20;;;-1.10;99.90;;;;;;4879423;28;20535;-83
2020/12/03 06:52:43;;;;;;;98.90;27.17;;;-1.10;99.90;;;;;;4881464;28;25475;-83
2020/12/03 06:55:44;;;;;;;96.00;27.85;;;-1.10;99.90;;;;;;4885209;28;20170;-83
2020/12/03 06:58:28;;;;;;;101.13;26.33;;;-1.10;99.90;;;;;;4881126;28;20181;-84
2020/12/03 07:01:25;;;;;;;98.18;25.10;;;-1.10;99.90;;;;;;4895573;28;20220;-83
2020/12/03 07:04:39;;;;;;;61.72;17.65;;;-1.20;99.90;;;;;;4880262;28;20496;-82
2020/12/03 07:07:42;;;;;;;105.82;30.58;;;-1.20;99.90;;;;;;4884375;28;20147;-83
2020/12/03 07:10:52;;;;;;;82.20;25.23;;;-1.10;99.90;;;;;;4879553;28;20109;-82
2020/12/03 07:14:06;;;;;;;106.57;26.95;;;-1.10;99.90;;;;;;4870217;28;20190;-83
2020/12/03 07:17:07;;;;;;;85.75;23.98;;;-1.10;99.90;;;;;;4807342;28;20123;-82
2020/12/03 07:20:04;;;;;;;98.82;30.20;;;-1.10;99.90;;;;;;4824890;28;20191;-83
2020/12/03 07:22:31;;;;;;;99.18;29.05;;;-1.10;99.90;;;;;;4851696;28;20668;-82
2020/12/03 07:24:56;;;;;;;104.07;28.65;;;-1.10;99.90;;;;;;4861964;28;20119;-82
2020/12/03 07:27:53;;;;;;;96.28;28.15;;;-1.20;99.90;;;;;;4850323;28;20118;-82
2020/12/03 07:30:42;;;;;;;95.88;28.70;;;-1.10;99.90;;;;;;4886299;28;20111;-83
2020/12/03 07:33:09;;;;;;;88.88;26.95;;;-1.10;99.90;;;;;;4866498;28;20197;-82
2020/12/03 07:35:43;;;;;;;86.70;25.48;;;-1.10;99.90;;;;;;4879984;28;20106;-83
2020/12/03 07:38:18;;;;;;;104.60;28.80;;;-1.10;99.90;;;;;;4866175;28;20612;-82
2020/12/03 07:40:41;;;;;;;103.57;28.83;;;-1.20;99.90;;;;;;4868678;28;20153;-83
2020/12/03 07:43:07;;;;;;;113.40;31.20;;;-1.10;99.90;;;;;;4863157;28;20192;-83
2020/12/03 07:45:35;;;;;;;;;;;-1.20;99.90;;;;;;4870131;28;20101;-82
2020/12/03 07:48:13;;;;;;;80.53;22.27;;;-1.20;99.90;;;;;;4879506;28;20050;-83
2020/12/03 07:51:10;;;;;;;102.45;29.13;;;-1.10;99.90;;;;;;4855638;28;20125;-83
2020/12/03 07:53:35;;;;;;;84.60;21.63;;;-1.10;99.90;;;;;;4865769;28;20108;-82
2020/12/03 07:55:58;;;;;;;;;;;-1.10;99.90;;;;;;4879893;28;20093;-83
2020/12/03 07:58:41;;;;;;;75.47;21.50;;;-1.10;99.90;;;;;;4896428;28;20058;-83
2020/12/03 08:01:06;;;;;;;113.82;29.70;;;-1.10;99.90;;;;;;4877786;28;20091;-83
2020/12/03 08:03:47;;;;;;;93.13;25.75;;;-1.10;99.90;;;;;;4879912;28;20531;-83
2020/12/03 08:06:30;;;;;;;109.70;29.20;;;-1.00;99.90;;;;;;4882386;28;20149;-83
2020/12/03 08:09:18;;;;;;;96.65;26.73;;;-1.00;99.90;;;;;;4881811;28;20543;-84
2020/12/03 08:11:47;;;;;;;99.07;26.90;;;-1.10;99.90;;;;;;4871672;28;20128;-83
2020/12/03 08:14:39;;;;;;;93.70;28.20;;;-1.00;99.90;;;;;;4883634;28;20446;-83
2020/12/03 08:17:04;;;;;;;98.45;26.95;;;-1.00;99.90;;;;;;4866893;28;20179;-83
2020/12/03 08:19:31;;;;;;;106.10;28.23;;;-0.90;99.90;;;;;;4902241;28;20449;-83
2020/12/03 08:21:57;;;;;;;105.22;30.15;;;-1.00;99.90;;;;;;4880339;28;20555;-83
2020/12/03 08:24:25;;;;;;;123.40;31.20;;;-1.00;99.90;;;;;;4876120;28;20110;-83
2020/12/03 08:26:49;;;;;;;104.97;26.98;;;-0.90;99.90;;;;;;4880392;28;20504;-83
2020/12/03 08:29:33;;;;;;;118.85;31.75;;;-1.00;99.90;;;;;;4873934;28;20174;-84
2020/12/03 08:31:56;;;;;;;97.60;27.67;;;-1.00;99.90;;;;;;4887980;28;20510;-83
2020/12/03 08:34:31;;;;;;;111.13;27.77;;;-1.00;99.90;;;;;;4874474;28;20108;-83
2020/12/03 08:36:55;;;;;;;90.32;27.45;;;-1.00;99.90;;;;;;4881443;28;20087;-83
2020/12/03 08:39:20;;;;;;;76.53;23.50;;;-0.90;99.90;;;;;;4880954;28;20442;-82
2020/12/03 08:41:43;;;;;;;95.72;29.15;;;-0.90;99.90;;;;;;4875686;28;20105;-82
2020/12/03 08:44:11;;;;;;;84.03;26.27;;;-0.90;99.90;;;;;;4881469;28;20546;-83
2020/12/03 08:46:34;;;;;;;95.80;26.00;;;-0.90;99.90;;;;;;4878704;28;20104;-82
2020/12/03 08:49:00;;;;;;;97.00;27.48;;;-0.90;99.90;;;;;;4879665;28;20176;-83
2020/12/03 08:51:24;;;;;;;;;;;-0.90;99.90;;;;;;4878433;28;20108;-82
2020/12/03 08:53:49;;;;;;;88.80;25.73;;;-0.90;99.90;;;;;;4879754;28;20412;-83
2020/12/03 08:56:30;;;;;;;80.53;24.83;;;-0.90;99.90;;;;;;4859590;28;20116;-83
2020/12/03 08:59:03;;;;;;;78.45;23.52;;;-0.90;99.90;;;;;;4859580;28;20505;-82
2020/12/03 09:01:37;;;;;;;107.65;28.30;;;-0.90;99.90;;;;;;4850517;28;20101;-83
2020/12/03 09:04:03;;;;;;;86.20;26.92;;;-0.90;99.90;;;;;;4852439;28;20091;-83
2020/12/03 09:06:43;;;;;;;80.03;23.42;;;-0.90;99.90;;;;;;4811644;28;20181;-83
2020/12/03 09:09:11;;;;;;;90.88;23.42;;;-0.90;99.90;;;;;;4838561;28;20093;-81
2020/12/03 09:11:36;;;;;;;104.18;27.67;;;-0.90;99.90;;;;;;4832112;28;20822;-83
2020/12/03 09:14:12;;;;;;;84.10;22.83;;;-0.90;99.90;;;;;;4841629;28;20110;-83
2020/12/03 09:17:09;;;;;;;108.28;28.38;;;-0.90;99.90;;;;;;4826233;28;20175;-84
2020/12/03 09:20:21;;;;;;;98.82;27.27;;;-0.80;99.90;;;;;;4825289;28;20100;-83
2020/12/03 09:26:58;;;;;;;98.88;26.27;;;-0.70;99.90;;;;;;4816717;28;21827;-82
2020/12/03 09:29:58;;;;;;;90.80;26.38;;;-0.70;99.90;;;;;;4829136;28;20165;-84
2020/12/03 09:32:58;;;;;;;86.90;25.15;;;-0.80;99.90;;;;;;4821696;28;20166;-83
2020/12/03 09:35:24;;;;;;;105.03;27.48;;;-0.80;99.90;;;;;;4833189;28;20092;-83
2020/12/03 09:37:58;;;;;;;90.85;25.55;;;-0.70;99.90;;;;;;4820786;28;20112;-84
2020/12/03 09:40:27;;;;;;;86.72;24.92;;;-0.70;99.90;;;;;;4836525;28;20491;-83
2020/12/03 09:42:52;;;;;;;94.10;23.23;;;-0.70;99.90;;;;;;4832878;28;20109;-83
2020/12/03 09:45:31;;;;;;;95.32;25.20;;;-0.70;99.90;;;;;;4812899;28;20170;-84
2020/12/03 09:48:07;;;;;;;81.93;24.60;;;-0.70;99.90;;;;;;4830684;28;20104;-82
2020/12/03 09:50:50;;;;;;;56.40;19.00;;;-0.70;99.90;;;;;;4831098;28;20450;-83
2020/12/03 09:53:28;;;;;;;83.57;23.20;;;-0.70;99.90;;;;;;4812049;28;20165;-83
2020/12/03 09:56:06;;;;;;;79.05;26.30;;;-0.60;99.90;;;;;;4829013;28;20088;-84
2020/12/03 10:05:46;;;;;;;79.45;23.23;;;-0.60;99.90;;;;;;4827155;28;20173;-84
2020/12/03 10:09:01;;;;;;;75.57;24.13;;;-0.60;99.90;;;;;;4820444;28;20197;-81
2020/12/03 10:12:09;;;;;;;85.50;23.05;;;-0.50;99.90;;;;;;4828559;28;20103;-81
2020/12/03 10:15:14;;;;;;;94.65;25.13;;;-0.50;99.90;;;;;;4828994;28;20090;-82
2020/12/03 10:18:12;;;;;;;82.18;22.27;;;-0.50;99.90;;;;;;4824549;28;20125;-82
2020/12/03 10:21:20;;;;;;;74.55;22.02;;;-0.50;99.90;;;;;;4792407;28;20106;-82
2020/12/03 10:24:11;;;;;;;79.90;22.77;;;-0.50;99.90;;;;;;4810995;28;20183;-82
2020/12/03 10:30:00;;;;;;;83.30;22.58;;;-0.50;99.90;;;;;;4835131;28;20099;-85
2020/12/03 10:32:25;;;;;;;85.95;26.23;;;-0.50;99.90;;;;;;4839547;28;20114;-83
2020/12/03 10:35:01;;;;;;;66.30;19.40;;;-0.50;99.90;;;;;;4826207;28;20267;-81
2020/12/03 10:38:03;;;;;;;72.57;19.83;;;-0.50;99.90;;;;;;4838474;28;20095;-83
2020/12/03 10:40:38;;;;;;;86.53;25.10;;;-0.50;99.90;;;;;;4830403;28;20094;-82
2020/12/03 10:43:05;;;;;;;;;;;-0.50;99.90;;;;;;4839867;28;20106;-83
2020/12/03 10:45:32;;;;;;;87.60;25.63;;;-0.50;99.90;;;;;;4837668;28;19981;-83
2020/12/03 10:47:59;;;;;;;61.97;18.00;;;-0.40;99.90;;;;;;4883148;28;20488;-82
2020/12/03 10:50:50;;;;;;;78.32;23.80;;;-0.40;99.90;;;;;;4882142;28;20127;-84
2020/12/03 10:53:16;;;;;;;94.13;25.50;;;-0.40;99.90;;;;;;4882230;28;20181;-81
2020/12/03 10:55:41;;;;;;;79.05;19.88;;;-0.40;99.90;;;;;;4884971;28;20534;-82
2020/12/03 10:58:10;;;;;;;76.22;22.90;;;-0.40;99.90;;;;;;4880362;28;20090;-82
2020/12/03 11:00:34;;;;;;;80.38;23.02;;;-0.50;99.90;;;;;;4878717;28;20093;-83
2020/12/03 11:03:02;;;;;;;87.47;23.98;;;-0.40;99.90;;;;;;4881459;28;20186;-84
2020/12/03 11:05:27;;;;;;;88.38;26.05;;;-0.40;99.90;;;;;;4881253;28;20441;-84
2020/12/03 11:07:54;;;;;;;98.68;25.48;;;-0.50;99.90;;;;;;4882828;28;20082;-82
2020/12/03 11:10:18;;;;;;;76.57;23.15;;;-0.40;99.90;;;;;;4881731;28;20446;-84
2020/12/03 11:12:44;;;;;;;60.25;20.83;;;-0.50;99.90;;;;;;4872015;28;20117;-84
2020/12/03 11:15:09;;;;;;;77.53;24.27;;;-0.40;99.90;;;;;;4898731;28;20092;-84
2020/12/03 11:17:50;;;;;;;76.90;25.60;;;-0.40;99.90;;;;;;4879347;28;20572;-82
2020/12/03 11:20:16;;;;;;;90.60;26.58;;;-0.30;99.90;;;;;;4884298;28;20465;-84
2020/12/03 11:23:01;;;;;;;72.38;24.38;;;-0.30;99.90;;;;;;4881369;28;20177;-85
2020/12/03 11:25:28;;;;;;;64.53;21.15;;;-0.30;99.90;;;;;;4871882;28;20095;-83
2020/12/03 11:27:54;;;;;;;85.20;23.40;;;-0.30;99.90;;;;;;4878461;28;20100;-83
2020/12/03 11:30:19;;;;;;;79.47;24.13;;;-0.20;99.90;;;;;;4880824;28;20110;-83
2020/12/03 11:32:46;;;;;;;60.65;18.63;;;-0.20;99.90;;;;;;4865030;28;20202;-85
2020/12/03 11:35:22;;;;;;;80.57;21.55;;;-0.20;99.90;;;;;;4870580;28;20180;-84
2020/12/03 11:37:46;;;;;;;57.45;19.55;;;-0.20;99.90;;;;;;4866952;28;20100;-85
2020/12/03 11:40:15;;;;;;;84.20;25.27;;;-0.20;99.90;;;;;;4879512;28;20188;-84
2020/12/03 11:42:45;;;;;;;74.95;22.98;;;-0.10;99.90;;;;;;4881196;28;20089;-84
2020/12/03 11:45:37;;;;;;;80.20;27.13;;;-0.10;99.90;;;;;;4881344;28;20099;-83
2020/12/03 11:48:18;;;;;;;78.43;25.90;;;-0.10;99.90;;;;;;4874202;28;20095;-83
2020/12/03 11:50:42;;;;;;;82.68;23.35;;;0.00;99.90;;;;;;4864520;28;20098;-84
2020/12/03 11:53:06;;;;;;;83.38;23.73;;;-0.10;99.90;;;;;;4870357;28;20187;-84
2020/12/03 11:55:29;;;;;;;78.03;23.70;;;-0.10;99.90;;;;;;4849983;28;20110;-83
2020/12/03 11:58:03;;;;;;;78.82;23.40;;;-0.10;99.90;;;;;;4880165;28;20142;-83
2020/12/03 12:00:27;;;;;;;81.68;22.33;;;-0.10;99.90;;;;;;4858983;28;20089;-83
2020/12/03 12:02:53;;;;;;;61.67;20.67;;;-0.10;99.90;;;;;;4874608;28;20097;-83
2020/12/03 12:05:30;;;;;;;83.20;25.42;;;0.00;99.90;;;;;;4899325;28;20104;-83
2020/12/03 12:08:08;;;;;;;84.28;23.50;;;-0.10;99.90;;;;;;4881648;28;20558;-83
2020/12/03 12:10:35;;;;;;;74.53;21.50;;;-0.10;99.90;;;;;;4881801;28;20453;-83
2020/12/03 12:12:58;;;;;;;77.25;25.25;;;0.00;99.90;;;;;;4867699;28;20313;-83
2020/12/03 12:15:21;;;;;;;65.68;21.08;;;;;;;;;;4863138;28;20097;-83
2020/12/03 12:17:46;;;;;;;60.70;21.40;;;;;;;;;;4836614;28;20098;-84
2020/12/03 12:20:11;;;;;;;83.93;25.40;;;;;;;;;;4846157;28;20102;-84
2020/12/03 12:22:36;;;;;;;85.18;25.38;;;0.10;99.90;;;;;;4872614;28;20477;-83
2020/12/03 12:24:59;;;;;;;82.30;25.70;;;0.10;99.90;;;;;;4872959;28;20165;-84
2020/12/03 12:27:23;;;;;;;80.93;26.05;;;0.10;99.90;;;;;;4871783;28;20178;-83
2020/12/03 12:29:46;;;;;;;84.40;24.00;;;0.10;99.90;;;;;;4860964;28;20166;-84
2020/12/03 12:32:10;;;;;;;65.72;21.17;;;0.10;99.90;;;;;;4860040;28;20613;-82
2020/12/03 12:34:34;;;;;;;80.93;22.88;;;0.00;99.90;;;;;;4861081;28;20127;-83
2020/12/03 12:36:58;;;;;;;73.50;19.25;;;0.00;99.90;;;;;;4878639;28;20093;-83
2020/12/03 12:39:21;;;;;;;85.32;23.10;;;0.00;99.90;;;;;;4870874;28;20084;-84
2020/12/03 12:41:57;;;;;;;77.18;23.80;;;0.00;99.90;;;;;;4875304;28;20120;-84
2020/12/03 12:44:21;;;;;;;86.28;25.70;;;0.00;99.90;;;;;;4873821;28;20622;-84
2020/12/03 12:46:44;;;;;;;72.55;23.70;;;0.00;99.90;;;;;;4865970;28;20119;-84
2020/12/03 12:49:07;;;;;;;77.13;22.20;;;0.00;99.90;;;;;;4862311;28;20223;-83
2020/12/03 12:51:31;;;;;;;84.00;22.75;;;;;;;;;;4876543;28;20089;-83
2020/12/03 12:53:56;;;;;;;85.40;26.02;;;0.10;99.90;;;;;;4871109;28;20147;-83
2020/12/03 12:56:19;;;;;;;81.53;25.73;;;0.00;99.90;;;;;;4859460;28;23559;-83
2020/12/03 12:58:42;;;;;;;81.28;23.90;;;0.00;99.90;;;;;;4872210;28;20165;-84
2020/12/03 13:01:05;;;;;;;79.75;24.50;;;-0.10;99.90;;;;;;4864425;28;21676;-83